createdAt,value
2022-11-10T00:49:05.186Z,2.45
2022-11-10T00:51:32.129Z,1.92
2022-11-10T00:53:59.056Z,1.70
2022-11-10T00:56:26.597Z,2.03
2022-11-10T00:58:53.563Z,1.95
2022-11-10T01:01:22.443Z,1.92
2022-11-10T01:03:49.437Z,1.90
2022-11-10T01:06:18.108Z,2.08
2022-11-10T01:08:45.373Z,2.45
2022-11-10T01:11:21.066Z,2.00
2022-11-10T01:13:49.699Z,2.27
2022-11-10T01:16:19.429Z,1.88
2022-11-10T01:18:50.859Z,1.83
2022-11-10T01:21:18.178Z,1.85
2022-11-10T01:23:45.468Z,2.05
2022-11-10T01:26:13.280Z,2.28
2022-11-10T01:28:40.309Z,1.80
2022-11-10T01:31:10.005Z,2.10
2022-11-10T01:33:36.911Z,2.20
2022-11-10T01:36:04.009Z,2.00
2022-11-10T01:38:33.946Z,1.70
2022-11-10T01:41:03.228Z,2.60
2022-11-10T01:43:30.429Z,2.00
2022-11-10T01:46:05.209Z,2.00
2022-11-10T01:48:52.420Z,1.90
2022-11-10T01:51:25.236Z,1.95
2022-11-10T01:53:58.892Z,1.88
2022-11-10T01:56:28.194Z,2.25
2022-11-10T01:58:59.823Z,2.20
2022-11-10T02:01:27.305Z,2.10
2022-11-10T02:03:59.052Z,2.60
2022-11-10T02:06:28.683Z,2.45
2022-11-10T02:08:56.979Z,2.60
2022-11-10T02:11:23.967Z,2.42
2022-11-10T02:13:51.551Z,2.60
2022-11-10T02:16:19.232Z,2.45
2022-11-10T02:18:46.187Z,2.58
2022-11-10T02:21:17.935Z,2.40
2022-11-10T02:23:53.525Z,2.58
2022-11-10T02:26:27.981Z,2.50
2022-11-10T02:28:55.424Z,2.47
2022-11-10T02:31:22.274Z,2.55
2022-11-10T02:33:49.018Z,2.83
2022-11-10T02:36:15.850Z,2.97
2022-11-10T02:38:42.700Z,3.08
2022-11-10T02:41:10.312Z,3.30
2022-11-10T02:43:38.443Z,3.20
2022-11-10T02:46:05.633Z,2.47
2022-11-10T02:48:32.675Z,3.05
2022-11-10T02:50:59.585Z,2.60
2022-11-10T02:53:26.566Z,2.53
2022-11-10T02:55:53.388Z,2.22
2022-11-10T02:58:20.346Z,2.47
2022-11-10T03:00:47.933Z,2.70
2022-11-10T03:03:14.880Z,2.50
2022-11-10T03:05:41.869Z,2.88
2022-11-10T03:08:08.951Z,3.05
2022-11-10T03:10:36.744Z,2.63
2022-11-10T03:13:03.751Z,2.60
2022-11-10T03:15:30.863Z,2.60
2022-11-10T03:18:02.468Z,2.55
2022-11-10T03:20:29.291Z,2.67
2022-11-10T03:23:04.079Z,2.58
2022-11-10T03:25:31.122Z,2.97
2022-11-10T03:27:58.096Z,3.30
2022-11-10T03:30:24.970Z,2.65
2022-11-10T03:32:51.939Z,2.90
2022-11-10T03:35:18.973Z,2.67
2022-11-10T03:37:45.863Z,2.97
2022-11-10T03:40:12.996Z,2.60
2022-11-10T03:42:44.834Z,3.03
2022-11-10T03:45:15.883Z,3.65
2022-11-10T03:47:50.043Z,2.85
2022-11-10T03:50:17.531Z,2.78
2022-11-10T03:52:45.623Z,2.90
2022-11-10T03:55:15.815Z,2.97
2022-11-10T03:57:44.215Z,2.97
2022-11-10T04:00:13.832Z,2.90
2022-11-10T04:02:41.638Z,2.92
2022-11-10T04:05:28.023Z,3.10
2022-11-10T04:08:20.169Z,2.83
2022-11-10T04:10:50.230Z,2.55
2022-11-10T04:13:35.610Z,3.00
2022-11-10T04:16:02.455Z,3.97
2022-11-10T04:18:29.891Z,2.40
2022-11-10T04:21:02.090Z,2.78
2022-11-10T04:23:34.900Z,2.65
2022-11-10T04:26:27.103Z,2.17
2022-11-10T04:28:59.425Z,2.75
2022-11-10T04:31:29.067Z,2.65
2022-11-10T04:33:56.314Z,2.67
2022-11-10T04:36:26.057Z,2.50
2022-11-10T04:38:53.116Z,2.55
2022-11-10T04:41:20.036Z,2.63
2022-11-10T04:43:46.990Z,3.47
2022-11-10T04:46:37.323Z,2.80
2022-11-10T04:49:06.954Z,2.53
2022-11-10T04:51:37.761Z,2.60
2022-11-10T04:54:06.537Z,2.50
2022-11-10T04:56:37.263Z,2.10
2022-11-10T04:59:04.183Z,2.50
2022-11-10T05:01:31.631Z,2.80
2022-11-10T05:03:58.548Z,2.83
2022-11-10T05:06:25.583Z,3.08
2022-11-10T05:08:52.871Z,2.67
2022-11-10T05:11:19.867Z,2.60
2022-11-10T05:13:47.076Z,3.58
2022-11-10T05:16:14.098Z,2.45
2022-11-10T05:18:41.955Z,2.60
2022-11-10T05:21:09.008Z,2.70
2022-11-10T05:23:40.333Z,2.60
2022-11-10T05:26:12.780Z,2.97
2022-11-10T05:28:41.361Z,2.72
2022-11-10T05:31:08.718Z,2.60
2022-11-10T05:33:36.625Z,2.30
2022-11-10T05:36:04.584Z,3.10
2022-11-10T05:38:31.958Z,2.42
2022-11-10T05:40:59.098Z,2.42
2022-11-10T05:43:26.703Z,2.85
2022-11-10T05:45:53.809Z,2.30
2022-11-10T05:48:20.614Z,2.88
2022-11-10T05:50:47.570Z,2.90
2022-11-10T05:53:14.574Z,3.20
2022-11-10T05:55:41.530Z,3.03
2022-11-10T05:58:09.006Z,3.20
2022-11-10T06:00:36.038Z,3.30
2022-11-10T06:03:21.828Z,3.47
2022-11-10T06:05:49.009Z,3.47
2022-11-10T06:08:17.855Z,3.40
2022-11-10T06:10:44.827Z,3.15
2022-11-10T06:13:12.017Z,3.50
2022-11-10T06:15:39.078Z,3.28
2022-11-10T06:18:06.601Z,3.67
2022-11-10T06:20:33.831Z,3.83
2022-11-10T06:23:06.406Z,3.45
2022-11-10T06:25:35.671Z,3.40
2022-11-10T06:28:03.115Z,3.30
2022-11-10T06:30:31.699Z,3.20
2022-11-10T06:32:59.129Z,3.78
2022-11-10T06:35:27.283Z,3.90
2022-11-10T06:38:00.923Z,3.55
2022-11-10T06:40:28.547Z,3.78
2022-11-10T06:42:55.924Z,3.40
2022-11-10T06:45:23.790Z,3.55
2022-11-10T06:48:03.701Z,3.83
2022-11-10T06:50:31.248Z,4.05
2022-11-10T06:52:59.569Z,4.70
2022-11-10T06:55:26.993Z,4.85
2022-11-10T06:57:54.610Z,5.20
2022-11-10T07:00:22.110Z,5.60
2022-11-10T07:02:57.978Z,5.32
2022-11-10T07:05:24.806Z,5.15
2022-11-10T07:07:52.037Z,5.07
2022-11-10T07:10:18.952Z,5.38
2022-11-10T07:12:45.894Z,5.97
2022-11-10T07:15:12.774Z,7.25
2022-11-10T07:17:41.163Z,7.30
2022-11-10T07:20:09.004Z,5.78
2022-11-10T07:22:35.842Z,5.65
2022-11-10T07:25:02.790Z,5.80
2022-11-10T07:27:29.713Z,6.07
2022-11-10T07:29:56.705Z,5.90
2022-11-10T07:32:23.552Z,13.43
2022-11-10T07:34:50.455Z,6.72
2022-11-10T07:37:17.495Z,6.60
2022-11-10T07:39:44.403Z,6.28
2022-11-10T07:42:11.309Z,5.95
2022-11-10T07:44:38.204Z,6.50
2022-11-10T07:47:05.243Z,6.47
2022-11-10T07:49:32.229Z,6.20
2022-11-10T07:51:59.127Z,6.50
2022-11-10T07:54:26.018Z,6.22
2022-11-10T07:56:53.437Z,5.78
2022-11-10T07:59:20.286Z,5.60
2022-11-10T08:01:47.704Z,5.75
2022-11-10T08:04:14.831Z,5.80
2022-11-10T08:06:42.003Z,6.25
2022-11-10T08:09:09.123Z,5.57
2022-11-10T08:11:35.934Z,5.15
2022-11-10T08:14:02.838Z,10.82
2022-11-10T08:16:29.803Z,8.18
2022-11-10T08:18:56.673Z,7.13
2022-11-10T08:21:23.553Z,6.00
2022-11-10T08:23:50.446Z,5.50
2022-11-10T08:26:18.870Z,5.20
2022-11-10T08:28:45.740Z,5.47
2022-11-10T08:31:12.641Z,5.00
2022-11-10T08:33:39.535Z,5.03
2022-11-10T08:36:06.723Z,5.15
2022-11-10T08:38:33.615Z,5.07
2022-11-10T08:41:00.555Z,4.93
2022-11-10T08:43:28.448Z,4.20
2022-11-10T08:45:59.513Z,4.40
2022-11-10T08:48:26.374Z,5.38
2022-11-10T08:50:53.411Z,4.70
2022-11-10T08:53:24.878Z,5.25
2022-11-10T08:55:53.460Z,4.20
2022-11-10T08:58:23.867Z,4.70
2022-11-10T09:00:51.380Z,4.53
2022-11-10T09:03:21.678Z,4.25
2022-11-10T09:05:55.062Z,4.22
2022-11-10T09:08:24.902Z,3.50
2022-11-10T09:10:51.828Z,3.65
2022-11-10T09:13:26.043Z,3.70
2022-11-10T09:15:56.672Z,3.80
2022-11-10T09:18:23.567Z,3.13
2022-11-10T09:20:50.422Z,3.67
2022-11-10T09:23:19.636Z,3.90
2022-11-10T09:25:52.497Z,3.65
2022-11-10T09:28:20.171Z,3.13
2022-11-10T09:30:48.700Z,3.28
2022-11-10T09:33:16.182Z,3.60
2022-11-10T09:35:43.729Z,4.22
2022-11-10T09:38:11.974Z,3.67
2022-11-10T09:40:44.525Z,3.90
2022-11-10T09:43:20.449Z,3.47
2022-11-10T09:45:51.428Z,3.50
2022-11-10T09:48:34.475Z,3.45
2022-11-10T09:51:12.810Z,3.53
2022-11-10T09:53:51.040Z,3.10
2022-11-10T09:56:26.150Z,3.20
2022-11-10T09:58:53.084Z,3.05
2022-11-10T10:01:36.508Z,3.40
2022-11-10T10:04:09.798Z,3.67
2022-11-10T10:07:11.233Z,3.13
2022-11-10T10:09:52.663Z,2.90
2022-11-10T10:12:37.382Z,3.00
2022-11-10T10:15:25.724Z,3.10
2022-11-10T10:18:02.611Z,3.22
2022-11-10T10:20:46.638Z,3.10
2022-11-10T10:23:19.102Z,2.75
2022-11-10T10:25:46.503Z,2.40
2022-11-10T10:28:19.462Z,2.65
2022-11-10T10:30:46.827Z,2.40
2022-11-10T10:33:20.522Z,2.50
2022-11-10T10:35:50.107Z,2.35
2022-11-10T10:38:27.976Z,2.50
2022-11-10T10:41:00.517Z,2.03
2022-11-10T10:43:27.407Z,2.78
2022-11-10T10:46:12.281Z,2.30
2022-11-10T10:48:39.141Z,2.20
2022-11-10T10:51:06.000Z,1.98
2022-11-10T10:53:32.987Z,2.33
2022-11-10T10:56:14.146Z,2.17
2022-11-10T10:59:02.223Z,2.40
2022-11-10T11:01:37.550Z,2.70
2022-11-10T11:04:29.299Z,2.00
2022-11-10T11:06:58.790Z,2.13
2022-11-10T11:09:38.440Z,2.00
2022-11-10T11:12:09.095Z,2.22
2022-11-10T11:14:36.034Z,2.25
2022-11-10T11:17:12.798Z,2.00
2022-11-10T11:19:40.330Z,1.80
2022-11-10T11:22:16.063Z,2.20
2022-11-10T11:24:51.859Z,1.90
2022-11-10T11:27:33.969Z,1.98
2022-11-10T11:30:06.334Z,2.35
2022-11-10T11:32:39.382Z,1.90
2022-11-10T11:35:12.300Z,2.20
2022-11-10T11:37:56.740Z,1.75
2022-11-10T11:40:50.106Z,1.95
2022-11-10T11:43:47.139Z,2.10
2022-11-10T11:46:32.815Z,3.35
2022-11-10T11:49:06.337Z,1.70
2022-11-10T11:51:49.491Z,1.90
2022-11-10T11:54:44.455Z,1.98
2022-11-10T11:57:43.887Z,2.15
2022-11-10T12:00:18.374Z,1.67
2022-11-10T12:03:03.524Z,1.83
2022-11-10T12:05:55.251Z,2.25
2022-11-10T12:08:34.043Z,2.10
2022-11-10T12:11:16.395Z,2.50
2022-11-10T12:13:43.314Z,2.38
2022-11-10T12:16:39.128Z,2.05
2022-11-10T12:19:14.903Z,2.08
2022-11-10T12:21:56.177Z,1.95
2022-11-10T12:24:40.508Z,2.55
2022-11-10T12:27:12.945Z,2.33
2022-11-10T12:29:46.099Z,2.03
2022-11-10T12:32:17.794Z,2.35
2022-11-10T12:34:53.718Z,2.40
2022-11-10T12:37:30.889Z,3.25
2022-11-10T12:40:03.764Z,2.88
2022-11-10T12:42:33.968Z,2.58
2022-11-10T12:45:05.553Z,2.70
2022-11-10T12:47:41.233Z,2.78
2022-11-10T12:50:19.937Z,3.70
2022-11-10T12:53:03.235Z,2.35
2022-11-10T12:55:37.355Z,2.70
2022-11-10T12:58:14.153Z,2.75
2022-11-10T13:01:07.669Z,2.80
2022-11-10T13:03:41.210Z,2.50
2022-11-10T13:06:28.604Z,2.92
2022-11-10T13:09:03.005Z,2.70
2022-11-10T13:11:42.507Z,2.65
2022-11-10T13:14:33.658Z,3.05
2022-11-10T13:17:01.044Z,2.90
2022-11-10T13:19:28.076Z,2.50
2022-11-10T13:22:06.396Z,2.80
2022-11-10T13:24:34.785Z,2.63
2022-11-10T13:27:08.488Z,2.90
2022-11-10T13:29:55.092Z,2.58
2022-11-10T13:32:33.396Z,2.65
2022-11-10T13:35:28.672Z,2.88
2022-11-10T13:37:57.419Z,2.90
2022-11-10T13:40:24.468Z,2.72
2022-11-10T13:42:57.290Z,2.42
2022-11-10T13:45:54.295Z,2.70
2022-11-10T13:48:58.992Z,2.70
2022-11-10T13:51:55.702Z,2.90
2022-11-10T13:54:55.050Z,2.35
2022-11-10T13:57:29.155Z,2.30
2022-11-10T14:00:03.452Z,2.53
2022-11-10T14:02:39.542Z,2.50
2022-11-10T14:05:12.983Z,2.20
2022-11-10T14:07:50.776Z,2.20
2022-11-10T14:10:35.334Z,2.83
2022-11-10T14:13:11.572Z,2.42
2022-11-10T14:15:46.513Z,2.50
2022-11-10T14:18:25.253Z,2.30
2022-11-10T14:21:01.187Z,2.50
2022-11-10T14:23:54.571Z,2.60
2022-11-10T14:26:38.026Z,2.67
2022-11-10T14:29:43.341Z,2.88
2022-11-10T14:32:23.380Z,2.70
2022-11-10T14:34:52.461Z,2.70
2022-11-10T14:37:29.239Z,2.70
2022-11-10T14:40:04.750Z,2.72
2022-11-10T14:42:33.551Z,2.83
2022-11-10T14:45:27.277Z,2.92
2022-11-10T14:48:04.109Z,2.95
2022-11-10T14:50:34.576Z,2.75
2022-11-10T14:53:25.999Z,2.92
2022-11-10T14:55:54.968Z,2.67
2022-11-10T14:58:28.194Z,2.78
2022-11-10T15:00:55.401Z,2.92
2022-11-10T15:03:37.771Z,2.60
2022-11-10T15:06:08.676Z,2.45
2022-11-10T15:08:36.530Z,2.63
2022-11-10T15:11:07.484Z,2.53
2022-11-10T15:13:39.504Z,2.60
2022-11-10T15:16:30.762Z,2.65
2022-11-10T15:19:20.794Z,2.88
2022-11-10T15:21:48.136Z,2.60
2022-11-10T15:24:16.340Z,2.78
2022-11-10T15:26:43.555Z,2.78
2022-11-10T15:29:21.345Z,3.25
2022-11-10T15:31:49.104Z,3.10
2022-11-10T15:34:42.374Z,3.20
2022-11-10T15:37:30.836Z,3.15
2022-11-10T15:40:32.719Z,3.20
2022-11-10T15:43:25.128Z,3.15
2022-11-10T15:46:01.836Z,3.80
2022-11-10T15:48:49.776Z,2.97
2022-11-10T15:51:24.668Z,3.80
2022-11-10T15:53:54.540Z,3.67
2022-11-10T15:56:27.388Z,3.85
2022-11-10T15:59:00.704Z,3.85
2022-11-10T16:01:31.331Z,3.92
2022-11-10T16:03:58.689Z,3.60
2022-11-10T16:06:25.836Z,3.80
2022-11-10T16:08:52.928Z,4.00
2022-11-10T16:11:21.594Z,3.50
2022-11-10T16:13:50.533Z,3.65
2022-11-10T16:16:19.509Z,3.97
2022-11-10T16:18:47.514Z,3.70
2022-11-10T16:21:25.058Z,3.78
2022-11-10T16:23:53.303Z,3.95
2022-11-10T16:26:23.994Z,3.55
2022-11-10T16:28:51.539Z,4.03
2022-11-10T16:31:22.363Z,3.58
2022-11-10T16:33:49.855Z,3.72
2022-11-10T16:36:26.565Z,3.85
2022-11-10T16:38:54.533Z,3.78
2022-11-10T16:41:22.287Z,3.78
2022-11-10T16:43:49.964Z,3.92
2022-11-10T16:46:26.802Z,3.80
2022-11-10T16:48:57.702Z,4.30
2022-11-10T16:51:31.161Z,4.20
2022-11-10T16:53:59.687Z,4.50
2022-11-10T16:56:27.476Z,4.07
2022-11-10T16:58:54.712Z,4.10
2022-11-10T17:01:28.601Z,4.32
2022-11-10T17:04:02.459Z,5.10
2022-11-10T17:06:30.765Z,5.43
2022-11-10T17:09:07.337Z,5.25
2022-11-10T17:14:01.783Z,5.13
2022-11-10T17:16:37.099Z,4.53
2022-11-10T17:19:06.724Z,13.40
2022-11-10T17:21:36.446Z,4.60
2022-11-10T17:24:05.123Z,5.65
2022-11-10T17:26:34.362Z,5.25
2022-11-10T17:29:01.431Z,7.43
2022-11-10T17:31:28.490Z,7.60
2022-11-10T17:33:55.886Z,5.65
2022-11-10T17:36:24.444Z,6.95
2022-11-10T17:38:52.886Z,6.28
2022-11-10T17:41:20.612Z,5.85
2022-11-10T17:43:47.951Z,5.57
2022-11-10T17:46:15.413Z,5.13
2022-11-10T17:48:43.013Z,5.88
2022-11-10T17:51:20.055Z,6.07
2022-11-10T17:53:47.288Z,6.28
2022-11-10T17:56:14.293Z,7.13
2022-11-10T17:58:41.477Z,6.32
2022-11-10T18:01:17.738Z,5.82
2022-11-10T18:03:46.481Z,6.15
2022-11-10T18:06:18.067Z,6.55
2022-11-10T18:08:45.984Z,6.47
2022-11-10T18:11:15.541Z,6.20
2022-11-10T18:13:43.289Z,6.93
2022-11-10T18:16:12.844Z,5.90
2022-11-10T18:18:40.527Z,6.40
2022-11-10T18:21:07.698Z,6.53
2022-11-10T18:23:35.057Z,6.78
2022-11-10T18:26:07.193Z,6.47
2022-11-10T18:28:35.293Z,6.03
2022-11-10T18:31:10.564Z,7.03
2022-11-10T18:33:38.194Z,7.13
2022-11-10T18:36:06.567Z,6.65
2022-11-10T18:38:33.671Z,7.53
2022-11-10T18:41:27.171Z,7.18
2022-11-10T18:43:54.139Z,7.47
2022-11-10T18:46:21.219Z,7.15
2022-11-10T18:48:48.305Z,8.02
2022-11-10T18:51:16.397Z,8.60
2022-11-10T18:53:43.493Z,9.75
2022-11-10T18:56:10.695Z,8.40
2022-11-10T18:58:39.117Z,9.18
2022-11-10T19:01:09.074Z,7.30
2022-11-10T19:03:36.916Z,7.38
2022-11-10T19:06:05.645Z,7.63
2022-11-10T19:08:32.792Z,8.30
2022-11-10T19:10:59.943Z,7.00
2022-11-10T19:13:27.102Z,6.70
2022-11-10T19:15:56.002Z,6.80
2022-11-10T19:18:22.974Z,6.85
2022-11-10T19:20:50.198Z,7.03
2022-11-10T19:23:17.934Z,7.00
2022-11-10T19:25:45.192Z,7.18
2022-11-10T19:28:12.297Z,6.80
2022-11-10T19:30:39.972Z,6.88
2022-11-10T19:33:07.108Z,7.60
2022-11-10T19:35:34.426Z,8.23
2022-11-10T19:38:01.320Z,8.65
2022-11-10T19:40:28.155Z,8.52
2022-11-10T19:42:55.272Z,8.07
2022-11-10T19:45:22.291Z,8.60
2022-11-10T19:47:49.283Z,10.27
2022-11-10T19:50:16.449Z,24.25
2022-11-10T19:52:43.393Z,6.70
2022-11-10T19:55:10.399Z,6.22
2022-11-10T19:57:37.777Z,9.40
2022-11-10T20:00:06.966Z,7.00
2022-11-10T20:02:34.456Z,12.27
2022-11-10T20:05:14.324Z,6.10
2022-11-10T20:07:59.851Z,5.82
2022-11-10T20:10:29.310Z,5.57
2022-11-10T20:12:56.829Z,5.63
2022-11-10T20:15:23.806Z,5.07
2022-11-10T20:17:50.837Z,5.97
2022-11-10T20:20:17.870Z,6.63
2022-11-10T20:22:44.892Z,5.40
2022-11-10T20:25:12.069Z,5.63
2022-11-10T20:27:39.057Z,6.78
2022-11-10T20:30:06.485Z,5.82
2022-11-10T20:32:33.633Z,6.43
2022-11-10T20:35:00.805Z,6.32
2022-11-10T20:37:31.414Z,6.38
2022-11-10T20:39:58.664Z,6.85
2022-11-10T20:42:25.729Z,6.63
2022-11-10T20:44:52.760Z,6.20
2022-11-10T20:47:20.248Z,6.45
2022-11-10T20:49:49.259Z,6.15
2022-11-10T20:52:16.672Z,6.32
2022-11-10T20:54:44.557Z,7.10
2022-11-10T20:57:11.826Z,6.78
2022-11-10T20:59:38.732Z,6.97
2022-11-10T21:02:06.006Z,6.07
2022-11-10T21:04:33.277Z,6.93
2022-11-10T21:07:00.956Z,6.03
2022-11-10T21:09:28.078Z,6.60
2022-11-10T21:12:13.680Z,6.78
2022-11-10T21:14:40.636Z,6.28
2022-11-10T21:17:07.610Z,6.68
2022-11-10T21:19:35.493Z,6.63
2022-11-10T21:22:03.261Z,7.05
2022-11-10T21:24:30.305Z,6.80
2022-11-10T21:26:58.349Z,6.28
2022-11-10T21:29:25.499Z,6.68
2022-11-10T21:31:52.748Z,6.45
2022-11-10T21:34:23.523Z,6.65
2022-11-10T21:36:50.514Z,6.25
2022-11-10T21:39:17.536Z,6.75
2022-11-10T21:41:44.554Z,6.55
2022-11-10T21:44:11.442Z,6.35
2022-11-10T21:46:38.719Z,7.20
2022-11-10T21:49:08.271Z,6.57
2022-11-10T21:51:35.582Z,6.78
2022-11-10T21:54:02.686Z,6.57
2022-11-10T21:56:32.579Z,7.13
2022-11-10T21:58:59.642Z,7.30
2022-11-10T22:01:27.756Z,6.85
2022-11-10T22:03:54.848Z,7.57
2022-11-10T22:06:22.139Z,7.40
2022-11-10T22:08:49.048Z,8.18
2022-11-10T22:11:38.246Z,7.50
2022-11-10T22:14:30.970Z,7.13
2022-11-10T22:17:16.372Z,8.10
2022-11-10T22:19:44.577Z,8.02
2022-11-10T22:22:14.657Z,8.07
2022-11-10T22:24:41.759Z,8.60
2022-11-10T22:27:08.642Z,26.40
2022-11-10T22:29:37.437Z,9.85
2022-11-10T22:32:04.687Z,9.38
2022-11-10T22:34:31.476Z,9.57
2022-11-10T22:36:59.852Z,10.70
2022-11-10T22:39:49.621Z,12.13
2022-11-10T22:42:35.292Z,11.68
2022-11-10T22:45:02.363Z,10.70
2022-11-10T22:47:49.395Z,10.93
2022-11-10T22:50:16.465Z,11.63
2022-11-10T22:52:43.598Z,11.40
2022-11-10T22:55:10.663Z,10.77
2022-11-10T22:57:37.549Z,12.25
2022-11-10T23:00:05.188Z,12.55
2022-11-10T23:02:32.081Z,12.20
2022-11-10T23:04:59.138Z,12.07
2022-11-10T23:07:26.055Z,12.15
2022-11-10T23:09:53.035Z,12.20
2022-11-10T23:12:20.174Z,12.27
2022-11-10T23:14:47.331Z,11.85
2022-11-10T23:17:14.426Z,12.10
2022-11-10T23:19:41.436Z,12.00
2022-11-10T23:22:08.544Z,12.63
2022-11-10T23:24:35.533Z,11.35
2022-11-10T23:27:02.685Z,10.93
2022-11-10T23:29:29.922Z,11.27
2022-11-10T23:31:57.072Z,10.32
2022-11-10T23:34:24.551Z,10.90
2022-11-10T23:36:51.786Z,10.98
2022-11-10T23:39:19.345Z,10.93
2022-11-10T23:41:46.504Z,11.15
2022-11-10T23:44:13.609Z,11.13
2022-11-10T23:46:40.694Z,11.38
2022-11-10T23:49:07.540Z,10.70
2022-11-10T23:51:34.900Z,10.50
2022-11-10T23:54:02.598Z,9.57
2022-11-10T23:56:30.159Z,8.85
2022-11-10T23:58:57.184Z,9.50
